createdAt,value
2023-04-22T00:02:53.632Z,13.20
2023-04-22T00:05:56.801Z,13.14
2023-04-22T00:08:59.567Z,13.23
2023-04-22T00:12:02.566Z,13.20
2023-04-22T00:15:06.003Z,13.16
2023-04-22T00:18:14.152Z,13.14
2023-04-22T00:21:17.139Z,13.24
2023-04-22T00:24:21.063Z,13.37
2023-04-22T00:27:23.735Z,13.43
2023-04-22T00:30:26.621Z,13.41
2023-04-22T00:33:29.320Z,13.42
2023-04-22T00:36:32.120Z,13.48
2023-04-22T00:39:35.360Z,13.46
2023-04-22T00:42:38.332Z,13.44
2023-04-22T00:45:42.835Z,13.43
2023-04-22T00:48:45.947Z,13.42
2023-04-22T00:51:48.575Z,13.46
2023-04-22T00:54:52.448Z,13.40
2023-04-22T00:57:58.469Z,13.44
2023-04-22T01:01:01.291Z,13.29
2023-04-22T01:04:04.889Z,13.06
2023-04-22T01:07:07.648Z,13.05
2023-04-22T01:10:10.686Z,12.92
2023-04-22T01:13:13.391Z,12.70
2023-04-22T01:16:16.378Z,12.72
2023-04-22T01:19:19.487Z,12.66
2023-04-22T01:22:23.067Z,12.64
2023-04-22T01:25:29.204Z,12.54
2023-04-22T01:28:32.361Z,12.47
2023-04-22T01:31:35.478Z,12.43
2023-04-22T01:34:38.108Z,12.37
2023-04-22T01:37:40.754Z,12.37
2023-04-22T01:40:43.584Z,12.39
2023-04-22T01:43:46.953Z,12.43
2023-04-22T01:46:49.587Z,12.43
2023-04-22T01:49:52.234Z,12.34
2023-04-22T01:52:57.354Z,12.27
2023-04-22T01:56:00.302Z,12.36
2023-04-22T01:59:02.859Z,12.25
2023-04-22T02:02:10.352Z,12.10
2023-04-22T02:05:13.100Z,12.17
2023-04-22T02:08:16.007Z,12.16
2023-04-22T02:11:21.435Z,12.10
2023-04-22T02:14:24.062Z,11.99
2023-04-22T02:17:27.400Z,11.86
2023-04-22T02:20:30.060Z,11.76
2023-04-22T02:23:33.217Z,11.70
2023-04-22T02:26:36.057Z,11.60
2023-04-22T02:29:39.020Z,11.60
2023-04-22T02:32:44.597Z,11.60
2023-04-22T02:35:47.316Z,11.60
2023-04-22T02:38:54.162Z,11.48
2023-04-22T02:41:57.085Z,11.44
2023-04-22T02:44:59.941Z,11.34
2023-04-22T02:48:03.050Z,11.36
2023-04-22T02:51:06.672Z,11.39
2023-04-22T02:54:09.684Z,11.37
2023-04-22T02:57:12.281Z,11.31
2023-04-22T03:00:15.011Z,11.25
2023-04-22T03:03:17.847Z,11.26
2023-04-22T03:06:20.914Z,11.18
2023-04-22T03:09:24.976Z,11.12
2023-04-22T03:12:27.615Z,11.15
2023-04-22T03:15:30.636Z,11.12
2023-04-22T03:18:33.383Z,11.20
2023-04-22T03:21:36.077Z,11.34
2023-04-22T03:24:38.806Z,11.46
2023-04-22T03:27:44.361Z,11.41
2023-04-22T03:30:47.944Z,11.31
2023-04-22T03:33:50.621Z,11.42
2023-04-22T03:37:03.128Z,11.59
2023-04-22T03:40:07.713Z,11.51
2023-04-22T03:43:10.505Z,11.52
2023-04-22T03:46:14.028Z,11.44
2023-04-22T03:49:21.787Z,11.37
2023-04-22T03:52:24.391Z,11.52
2023-04-22T03:55:34.233Z,11.52
2023-04-22T03:58:37.383Z,11.44
2023-04-22T04:01:42.840Z,11.44
2023-04-22T04:04:46.789Z,11.39
2023-04-22T04:07:51.078Z,11.48
2023-04-22T04:10:53.744Z,11.57
2023-04-22T04:13:56.504Z,11.64
2023-04-22T04:17:09.256Z,11.73
2023-04-22T04:20:12.614Z,11.75
2023-04-22T04:23:17.441Z,11.74
2023-04-22T04:26:21.644Z,11.73
2023-04-22T04:29:28.996Z,11.72
2023-04-22T04:32:40.841Z,11.85
2023-04-22T04:35:45.637Z,11.96
2023-04-22T04:38:53.706Z,11.97
2023-04-22T04:41:59.066Z,12.05
2023-04-22T04:45:04.502Z,12.21
2023-04-22T04:48:07.981Z,12.09
2023-04-22T04:51:13.266Z,12.07
2023-04-22T04:54:23.338Z,12.06
2023-04-22T04:57:26.098Z,12.13
2023-04-22T05:00:29.664Z,12.36
2023-04-22T05:03:33.187Z,12.48
2023-04-22T05:06:36.264Z,12.44
2023-04-22T05:09:40.962Z,12.37
2023-04-22T05:12:47.791Z,12.36
2023-04-22T05:15:56.406Z,12.37
2023-04-22T05:19:01.861Z,12.50
2023-04-22T05:22:05.484Z,12.49
2023-04-22T05:25:08.993Z,12.51
2023-04-22T05:28:12.594Z,12.53
2023-04-22T05:31:22.557Z,12.45
2023-04-22T05:34:25.324Z,12.44
2023-04-22T05:37:29.982Z,12.45
2023-04-22T05:40:33.049Z,12.45
2023-04-22T05:43:36.280Z,12.57
2023-04-22T05:46:46.048Z,12.64
2023-04-22T05:49:49.464Z,12.76
2023-04-22T05:53:08.009Z,12.72
2023-04-22T05:56:10.599Z,12.78
2023-04-22T05:59:13.317Z,12.83
2023-04-22T06:02:16.530Z,13.10
2023-04-22T06:05:19.511Z,13.40
2023-04-22T06:08:22.798Z,13.77
2023-04-22T06:11:26.603Z,14.04
2023-04-22T06:14:29.095Z,14.26
2023-04-22T06:17:31.720Z,14.50
2023-04-22T06:20:35.962Z,14.68
2023-04-22T06:23:38.815Z,14.67
2023-04-22T06:26:41.548Z,14.81
2023-04-22T06:29:44.301Z,14.90
2023-04-22T06:32:46.843Z,14.91
2023-04-22T06:35:49.487Z,14.91
2023-04-22T06:38:52.556Z,14.92
2023-04-22T06:42:24.343Z,14.96
2023-04-22T06:45:45.723Z,15.05
2023-04-22T06:48:57.342Z,15.20
2023-04-22T06:52:19.216Z,15.31
2023-04-22T06:55:22.050Z,15.48
2023-04-22T06:58:24.726Z,15.53
2023-04-22T07:01:27.567Z,15.64
2023-04-22T07:04:31.819Z,15.76
2023-04-22T07:07:36.135Z,15.88
2023-04-22T07:10:39.344Z,16.05
2023-04-22T07:14:05.023Z,16.17
2023-04-22T07:17:07.673Z,16.31
2023-04-22T07:20:11.237Z,16.43
2023-04-22T07:23:13.729Z,16.61
2023-04-22T07:26:16.376Z,16.78
2023-04-22T07:29:19.403Z,16.91
2023-04-22T07:32:22.535Z,17.12
2023-04-22T07:35:25.683Z,17.15
2023-04-22T07:38:28.494Z,17.19
2023-04-22T07:41:31.814Z,17.46
2023-04-22T07:44:34.664Z,17.79
2023-04-22T07:47:37.261Z,17.96
2023-04-22T07:50:41.701Z,18.00
2023-04-22T07:53:44.779Z,18.05
2023-04-22T07:56:47.508Z,18.05
2023-04-22T07:59:50.339Z,18.29
2023-04-22T08:02:53.271Z,18.46
2023-04-22T08:05:58.333Z,18.66
2023-04-22T08:09:02.218Z,18.83
2023-04-22T08:12:05.182Z,19.09
2023-04-22T08:15:08.185Z,19.36
2023-04-22T08:18:11.049Z,19.54
2023-04-22T08:21:14.771Z,19.78
2023-04-22T08:24:17.423Z,20.00
2023-04-22T08:27:22.246Z,20.10
2023-04-22T08:30:25.079Z,20.28
2023-04-22T08:33:28.072Z,20.34
2023-04-22T08:36:32.700Z,20.48
2023-04-22T08:39:35.583Z,20.64
2023-04-22T08:42:38.646Z,20.87
2023-04-22T08:45:42.228Z,21.20
2023-04-22T08:48:47.439Z,21.32
2023-04-22T08:51:50.878Z,21.65
2023-04-22T08:54:53.635Z,21.83
2023-04-22T08:58:01.123Z,22.06
2023-04-22T09:01:04.962Z,22.32
2023-04-22T09:04:10.346Z,22.55
2023-04-22T09:07:19.144Z,22.63
2023-04-22T09:10:22.751Z,22.86
2023-04-22T09:13:27.411Z,23.05
2023-04-22T09:16:33.906Z,23.08
2023-04-22T09:19:36.619Z,23.29
2023-04-22T09:22:43.860Z,23.58
2023-04-22T09:25:47.031Z,23.82
2023-04-22T09:28:56.021Z,24.03
2023-04-22T09:31:58.632Z,24.29
2023-04-22T09:35:03.901Z,24.61
2023-04-22T09:38:08.313Z,24.93
2023-04-22T09:41:12.372Z,24.81
2023-04-22T09:44:20.955Z,25.02
2023-04-22T09:47:26.024Z,25.83
2023-04-22T09:50:29.650Z,26.58
2023-04-22T09:53:37.476Z,27.34
2023-04-22T09:56:48.361Z,28.48
2023-04-22T09:59:52.578Z,29.93
2023-04-22T10:02:55.299Z,29.98
2023-04-22T10:05:59.146Z,28.34
2023-04-22T10:09:02.773Z,26.52
2023-04-22T10:12:05.360Z,25.00
2023-04-22T10:15:08.379Z,27.66
2023-04-22T10:18:14.268Z,31.88
2023-04-22T10:21:19.748Z,34.04
2023-04-22T10:24:25.404Z,36.19
2023-04-22T10:27:27.976Z,37.21
2023-04-22T10:30:33.274Z,37.40
2023-04-22T10:33:37.030Z,38.29
2023-04-22T10:37:13.176Z,38.72
2023-04-22T10:40:18.436Z,39.86
2023-04-22T10:43:41.327Z,40.06
2023-04-22T10:46:45.770Z,40.00
2023-04-22T10:49:51.293Z,39.70
2023-04-22T10:52:57.020Z,35.47
2023-04-22T10:56:01.116Z,38.20
2023-04-22T10:59:17.031Z,39.39
2023-04-22T11:02:21.679Z,41.05
2023-04-22T11:05:27.504Z,36.41
2023-04-22T11:08:30.262Z,35.98
2023-04-22T11:11:33.212Z,33.36
2023-04-22T11:14:35.878Z,30.95
2023-04-22T11:17:42.046Z,29.37
2023-04-22T11:20:45.498Z,28.84
2023-04-22T11:23:53.031Z,28.49
2023-04-22T11:26:57.144Z,28.59
2023-04-22T11:30:11.173Z,28.11
2023-04-22T11:33:16.051Z,27.49
2023-04-22T11:36:19.539Z,26.85
2023-04-22T11:39:22.217Z,26.23
2023-04-22T11:42:24.911Z,25.93
2023-04-22T11:45:29.136Z,25.55
2023-04-22T11:48:31.782Z,25.09
2023-04-22T11:51:34.710Z,24.76
2023-04-22T11:54:38.485Z,24.60
2023-04-22T11:57:42.913Z,24.68
2023-04-22T12:00:50.651Z,24.79
2023-04-22T12:04:00.559Z,24.90
2023-04-22T12:07:04.129Z,25.32
2023-04-22T12:10:08.071Z,27.01
2023-04-22T12:13:22.276Z,34.19
2023-04-22T12:16:25.088Z,33.15
2023-04-22T12:19:27.778Z,29.95
2023-04-22T12:22:30.524Z,28.21
2023-04-22T12:25:34.030Z,27.51
2023-04-22T12:28:38.245Z,27.73
2023-04-22T12:31:41.058Z,27.68
2023-04-22T12:34:43.929Z,28.22
2023-04-22T12:37:46.625Z,35.71
2023-04-22T12:40:49.409Z,34.63
2023-04-22T12:43:52.785Z,31.24
2023-04-22T12:46:56.659Z,34.84
2023-04-22T12:50:01.350Z,37.32
2023-04-22T12:53:03.982Z,34.24
2023-04-22T12:56:06.709Z,30.70
2023-04-22T12:59:09.294Z,28.77
2023-04-22T13:02:12.171Z,27.64
2023-04-22T13:05:16.472Z,26.95
2023-04-22T13:08:19.284Z,26.49
2023-04-22T13:11:22.472Z,26.07
2023-04-22T13:14:25.746Z,27.72
2023-04-22T13:17:28.447Z,31.35
2023-04-22T13:20:31.313Z,34.04
2023-04-22T13:23:35.420Z,36.90
2023-04-22T13:26:38.980Z,37.73
2023-04-22T13:29:42.388Z,31.88
2023-04-22T13:32:45.973Z,30.67
2023-04-22T13:35:48.713Z,28.75
2023-04-22T13:38:53.812Z,28.20
2023-04-22T13:41:56.971Z,27.35
2023-04-22T13:44:59.616Z,26.65
2023-04-22T13:48:02.271Z,26.38
2023-04-22T13:51:05.383Z,26.32
2023-04-22T13:54:08.303Z,29.49
2023-04-22T13:57:10.895Z,31.23
2023-04-22T14:00:13.908Z,28.64
2023-04-22T14:03:17.287Z,26.81
2023-04-22T14:06:20.471Z,27.69
2023-04-22T14:09:23.094Z,30.98
2023-04-22T14:12:25.833Z,30.21
2023-04-22T14:15:28.706Z,30.01
2023-04-22T14:18:31.496Z,27.88
2023-04-22T14:21:34.095Z,26.74
2023-04-22T14:24:37.840Z,26.47
2023-04-22T14:27:41.198Z,26.61
2023-04-22T14:30:44.348Z,26.66
2023-04-22T14:33:47.096Z,26.11
2023-04-22T14:36:49.747Z,25.91
2023-04-22T14:39:52.830Z,25.60
2023-04-22T14:42:56.488Z,25.24
2023-04-22T14:45:59.187Z,24.61
2023-04-22T14:49:02.082Z,24.46
2023-04-22T14:52:06.712Z,24.21
2023-04-22T14:55:21.986Z,24.26
2023-04-22T14:58:27.196Z,24.21
2023-04-22T15:01:31.673Z,24.21
2023-04-22T15:04:34.352Z,23.99
2023-04-22T15:07:37.716Z,24.07
2023-04-22T15:10:40.325Z,23.82
2023-04-22T15:13:43.843Z,23.86
2023-04-22T15:16:46.833Z,23.79
2023-04-22T15:19:50.228Z,23.55
2023-04-22T15:22:52.984Z,23.22
2023-04-22T15:25:55.758Z,23.35
2023-04-22T15:28:58.540Z,23.45
2023-04-22T15:32:02.245Z,23.44
2023-04-22T15:35:07.315Z,23.56
2023-04-22T15:38:09.998Z,23.49
2023-04-22T15:41:13.408Z,23.67
2023-04-22T15:44:16.946Z,23.71
2023-04-22T15:47:19.905Z,23.36
2023-04-22T15:50:23.545Z,22.99
2023-04-22T15:53:26.189Z,22.75
2023-04-22T15:56:29.531Z,22.54
2023-04-22T15:59:32.060Z,22.27
2023-04-22T16:02:36.885Z,22.03
2023-04-22T16:07:32.071Z,21.87
2023-04-22T16:13:27.231Z,21.77
2023-04-22T16:16:31.962Z,21.38
2023-04-22T16:19:36.882Z,21.23
2023-04-22T16:22:39.540Z,21.07
2023-04-22T16:25:42.307Z,20.86
2023-04-22T16:28:46.798Z,20.74
2023-04-22T16:31:49.357Z,20.70
2023-04-22T16:34:52.481Z,20.73
2023-04-22T16:37:55.064Z,20.63
2023-04-22T16:40:57.685Z,20.51
2023-04-22T16:44:01.097Z,20.45
2023-04-22T16:47:03.726Z,20.46
2023-04-22T16:50:07.047Z,20.58
2023-04-22T16:53:11.863Z,20.55
2023-04-22T16:56:14.467Z,20.41
2023-04-22T16:59:17.376Z,20.32
2023-04-22T17:02:20.108Z,20.19
2023-04-22T17:05:22.851Z,20.10
2023-04-22T17:08:25.852Z,20.12
2023-04-22T17:11:32.389Z,19.98
2023-04-22T17:14:34.920Z,19.89
2023-04-22T17:17:37.516Z,19.79
2023-04-22T17:20:40.609Z,19.73
2023-04-22T17:23:43.638Z,19.57
2023-04-22T17:26:46.278Z,19.50
2023-04-22T17:29:48.923Z,19.42
2023-04-22T17:32:51.881Z,19.34
2023-04-22T17:35:56.211Z,19.26
2023-04-22T17:38:58.869Z,19.20
2023-04-22T17:42:02.509Z,19.15
2023-04-22T17:45:05.471Z,19.08
2023-04-22T17:48:08.508Z,19.05
2023-04-22T17:51:11.671Z,19.06
2023-04-22T17:54:14.494Z,19.00
2023-04-22T17:57:17.374Z,18.97
2023-04-22T18:00:20.864Z,18.88
2023-04-22T18:03:23.857Z,18.81
2023-04-22T18:06:27.669Z,18.75
2023-04-22T18:09:30.600Z,18.64
2023-04-22T18:12:33.427Z,18.57
2023-04-22T18:15:36.297Z,18.53
2023-04-22T18:18:40.492Z,18.43
2023-04-22T18:21:56.707Z,18.33
2023-04-22T18:25:02.730Z,18.34
2023-04-22T18:28:05.538Z,18.29
2023-04-22T18:31:08.356Z,18.25
2023-04-22T18:34:13.477Z,18.18
2023-04-22T18:37:16.831Z,18.09
2023-04-22T18:40:20.765Z,18.03
2023-04-22T18:43:23.531Z,17.92
2023-04-22T18:46:26.203Z,17.84
2023-04-22T18:49:33.656Z,17.80
2023-04-22T18:52:37.188Z,17.77
2023-04-22T18:55:41.926Z,17.73
2023-04-22T18:58:45.148Z,17.70
2023-04-22T19:01:48.133Z,17.61
2023-04-22T19:04:51.647Z,17.56
2023-04-22T19:07:54.522Z,17.48
2023-04-22T19:10:58.174Z,17.44
2023-04-22T19:14:03.081Z,17.42
2023-04-22T19:17:05.702Z,17.33
2023-04-22T19:20:09.287Z,17.31
2023-04-22T19:23:17.384Z,17.27
2023-04-22T19:26:21.215Z,17.26
2023-04-22T19:29:23.776Z,17.19
2023-04-22T19:32:26.824Z,17.08
2023-04-22T19:35:30.079Z,17.08
2023-04-22T19:38:32.958Z,17.06
2023-04-22T19:41:38.869Z,16.98
2023-04-22T19:44:46.600Z,16.90
2023-04-22T19:47:51.318Z,16.86
2023-04-22T19:50:55.343Z,16.82
2023-04-22T19:53:59.518Z,16.73
2023-04-22T19:57:06.771Z,16.69
2023-04-22T20:00:11.581Z,16.64
2023-04-22T20:03:18.176Z,16.60
2023-04-22T20:06:22.748Z,16.57
2023-04-22T20:09:27.019Z,16.57
2023-04-22T20:12:30.341Z,16.50
2023-04-22T20:15:34.296Z,16.45
2023-04-22T20:18:37.394Z,16.43
2023-04-22T20:21:41.987Z,16.42
2023-04-22T20:24:45.836Z,16.32
2023-04-22T20:27:48.670Z,16.34
2023-04-22T20:30:51.653Z,16.28
2023-04-22T20:33:54.586Z,16.23
2023-04-22T20:36:59.369Z,16.20
2023-04-22T20:40:06.418Z,16.16
2023-04-22T20:43:09.307Z,16.12
2023-04-22T20:46:13.012Z,16.09
2023-04-22T20:49:16.660Z,16.10
2023-04-22T20:52:19.354Z,16.05
2023-04-22T20:55:22.523Z,16.05
2023-04-22T20:58:25.222Z,16.10
2023-04-22T21:01:29.357Z,16.07
2023-04-22T21:04:32.821Z,16.06
2023-04-22T21:07:39.425Z,16.09
2023-04-22T21:10:42.340Z,16.11
2023-04-22T21:13:45.288Z,15.99
2023-04-22T21:16:58.332Z,15.98
2023-04-22T21:20:05.719Z,15.98
2023-04-22T21:23:10.284Z,15.91
2023-04-22T21:26:15.127Z,15.85
2023-04-22T21:29:19.678Z,15.81
2023-04-22T21:32:22.429Z,15.72
2023-04-22T21:35:25.401Z,15.63
2023-04-22T21:38:28.388Z,15.58
2023-04-22T21:41:32.519Z,15.50
2023-04-22T21:44:36.506Z,15.43
2023-04-22T21:47:39.345Z,15.43
2023-04-22T21:50:42.294Z,15.39
2023-04-22T21:53:45.046Z,15.36
2023-04-22T21:56:47.850Z,15.29
2023-04-22T21:59:50.780Z,15.25
2023-04-22T22:02:53.723Z,15.17
2023-04-22T22:05:56.992Z,15.11
2023-04-22T22:08:59.668Z,14.99
2023-04-22T22:12:03.120Z,14.92
2023-04-22T22:15:08.934Z,14.77
2023-04-22T22:18:11.705Z,14.71
2023-04-22T22:21:14.461Z,14.56
2023-04-22T22:24:17.438Z,14.42
2023-04-22T22:27:22.972Z,14.38
2023-04-22T22:30:26.824Z,14.34
2023-04-22T22:33:30.032Z,14.30
2023-04-22T22:36:33.206Z,14.24
2023-04-22T22:39:37.844Z,14.26
2023-04-22T22:42:40.738Z,14.28
2023-04-22T22:45:43.357Z,14.25
2023-04-22T22:48:46.870Z,14.22
2023-04-22T22:51:49.637Z,14.13
2023-04-22T22:54:52.299Z,14.11
2023-04-22T22:57:56.183Z,14.12
2023-04-22T23:00:59.940Z,14.07
2023-04-22T23:04:02.952Z,14.01
2023-04-22T23:07:05.913Z,13.95
2023-04-22T23:10:09.825Z,13.93
2023-04-22T23:13:13.667Z,13.91
2023-04-22T23:16:16.512Z,13.90
2023-04-22T23:19:19.508Z,13.85
2023-04-22T23:22:23.452Z,13.74
2023-04-22T23:25:26.318Z,13.62
2023-04-22T23:28:29.258Z,13.59
2023-04-22T23:31:33.684Z,13.59
2023-04-22T23:34:39.809Z,13.62
2023-04-22T23:37:45.817Z,13.56
2023-04-22T23:40:48.701Z,13.53
2023-04-22T23:43:51.554Z,13.49
2023-04-22T23:46:54.244Z,13.46
2023-04-22T23:49:57.885Z,13.36
2023-04-22T23:53:00.466Z,13.27
2023-04-22T23:56:05.828Z,13.24
2023-04-22T23:59:08.730Z,13.11
